Time;durP1;ratioP1;P1;durP2;ratioP2;P2;SDS_P1;SDS_P2;PMS_P1;PMS_P2;Temp;Humidity;BMP_temperature;BMP_pressure;BME280_temperature;BME280_humidity;BME280_pressure;Samples;Min_cycle;Max_cycle;Signal;HPM_P1;HPM_P2
2022/08/20 00:00:16;;;;;;;18.42;9.70;;;;;;;21.19;66.12;96167.88;5134948;27;20047;-61
2022/08/20 00:02:46;;;;;;;12.65;8.60;;;;;;;21.17;66.51;96164.50;5134940;27;20492;-66
2022/08/20 00:05:14;;;;;;;10.75;9.02;;;;;;;21.15;66.30;96154.00;5134954;27;20404;-63
2022/08/20 00:07:42;;;;;;;11.20;8.63;;;;;;;21.13;66.63;96158.59;5134819;27;20047;-62
2022/08/20 00:10:10;;;;;;;11.15;8.80;;;;;;;21.11;66.91;96163.22;5134768;27;20473;-64
2022/08/20 00:12:44;;;;;;;9.43;8.52;;;;;;;21.10;66.70;96168.69;5134731;27;20055;-62
2022/08/20 00:15:13;;;;;;;10.27;8.52;;;;;;;20.97;66.79;96148.47;5134826;27;20554;-60
2022/08/20 00:17:41;;;;;;;10.30;8.05;;;;;;;21.04;67.06;96165.56;5134537;27;20473;-60
2022/08/20 00:20:11;;;;;;;15.70;8.90;;;;;;;21.05;67.35;96164.63;5134472;27;20126;-64
2022/08/20 00:22:39;;;;;;;9.95;8.63;;;;;;;21.03;66.85;96163.88;5134855;27;20051;-61
2022/08/20 00:25:08;;;;;;;12.27;9.10;;;;;;;21.02;67.29;96151.59;5134609;27;20050;-65
2022/08/20 00:27:35;;;;;;;14.82;9.55;;;;;;;21.02;67.08;96151.59;5134569;27;20412;-58
2022/08/20 00:30:05;;;;;;;13.35;9.00;;;;;;;21.02;66.80;96153.38;5134473;27;20051;-62
2022/08/20 00:32:32;;;;;;;12.43;9.43;;;;;;;20.99;67.25;96148.34;5134444;27;20404;-62
2022/08/20 00:34:59;;;;;;;11.15;10.05;;;;;;;20.94;67.31;96138.94;5133927;27;20282;-60
2022/08/20 00:37:26;;;;;;;14.15;9.57;;;;;;;20.95;67.70;96142.47;5134269;27;20122;-63
2022/08/20 00:39:53;;;;;;;13.10;9.25;;;;;;;20.94;67.43;96141.63;5134220;27;20488;-64
2022/08/20 00:42:20;;;;;;;11.93;9.52;;;;;;;20.89;67.66;96141.13;5134218;27;20152;-61
2022/08/20 00:44:47;;;;;;;10.32;9.32;;;;;;;20.88;68.09;96138.59;5134483;27;20611;-63
2022/08/20 00:47:16;;;;;;;12.25;9.10;;;;;;;20.82;67.86;96138.16;5134205;27;20046;-64
2022/08/20 00:49:44;;;;;;;11.75;9.27;;;;;;;20.82;67.57;96132.84;5134381;27;20047;-66
2022/08/20 00:52:15;;;;;;;17.20;9.80;;;;;;;20.80;67.61;96131.31;5134050;27;20051;-65
2022/08/20 00:54:46;;;;;;;12.55;9.65;;;;;;;20.78;67.49;96130.59;5134025;27;20085;-61
2022/08/20 00:57:28;;;;;;;14.15;8.35;;;;;;;20.75;67.84;96123.72;5133842;27;20043;-59
2022/08/20 00:59:58;;;;;;;15.02;8.82;;;;;;;20.73;67.40;96120.34;5134268;27;20103;-66
2022/08/20 01:02:30;;;;;;;11.60;9.13;;;;;;;20.63;68.08;96117.66;5134003;27;20101;-63
2022/08/20 01:04:58;;;;;;;9.80;8.80;;;;;;;20.63;68.16;96122.13;5133917;27;20129;-65
2022/08/20 01:07:31;;;;;;;14.30;9.02;;;;;;;20.62;68.14;96121.25;5133841;27;20090;-62
2022/08/20 01:09:59;;;;;;;10.00;8.88;;;;;;;20.63;68.24;96127.44;5133859;27;20047;-62
2022/08/20 01:12:28;;;;;;;11.05;8.70;;;;;;;20.58;68.29;96122.50;5133835;27;20130;-59
2022/08/20 01:14:57;;;;;;;10.35;9.18;;;;;;;20.55;68.61;96122.78;5134197;27;20043;-66
2022/08/20 01:17:31;;;;;;;13.82;9.23;;;;;;;20.54;68.67;96121.09;5133858;27;20049;-62
2022/08/20 01:20:01;;;;;;;10.63;9.23;;;;;;;20.43;68.90;96117.53;5133852;27;20054;-63
2022/08/20 01:25:27;;;;;;;10.30;9.27;;;;;;;20.29;69.69;96112.56;5133838;28;20139;-61
2022/08/20 01:27:56;;;;;;;11.20;9.52;;;;;;;20.24;69.41;96112.09;5134080;27;20090;-62
2022/08/20 01:30:27;;;;;;;11.82;10.10;;;;;;;20.20;69.82;96111.53;5133895;27;20401;-64
2022/08/20 01:32:53;;;;;;;;;;;;;;;20.20;70.04;96111.53;5134245;27;20039;-62
2022/08/20 01:35:24;;;;;;;11.32;9.18;;;;;;;20.14;69.60;96104.91;5133755;27;20364;-65
2022/08/20 01:37:52;;;;;;;11.18;9.88;;;;;;;20.13;69.98;96108.53;5133511;27;20553;-64
2022/08/20 01:40:29;;;;;;;12.35;8.93;;;;;;;20.16;70.18;96105.63;5133696;27;20051;-62
2022/08/20 01:42:58;;;;;;;10.98;9.30;;;;;;;20.14;69.74;96112.88;5133609;27;20039;-66
2022/08/20 01:45:26;;;;;;;10.65;9.52;;;;;;;20.14;70.23;96107.56;5133593;27;20043;-63
2022/08/20 01:47:53;;;;;;;11.07;8.50;;;;;;;20.14;70.21;96109.38;5136345;27;20047;-61
2022/08/20 01:50:26;;;;;;;10.10;8.95;;;;;;;20.10;70.20;96102.66;5137602;27;20051;-60
2022/08/20 01:53:03;;;;;;;10.20;8.80;;;;;;;20.07;70.31;96098.44;5137496;27;20093;-61
2022/08/20 01:55:31;;;;;;;11.55;9.50;;;;;;;20.08;70.05;96095.66;5137548;27;20067;-58
2022/08/20 01:58:00;;;;;;;10.68;9.60;;;;;;;20.05;69.86;96097.72;5137093;27;20047;-62
2022/08/20 02:00:27;;;;;;;11.88;9.05;;;;;;;20.05;70.26;96097.72;5137219;27;20138;-65
2022/08/20 02:02:54;;;;;;;12.93;9.52;;;;;;;20.01;70.03;96104.25;5137427;27;20090;-63
2022/08/20 02:05:22;;;;;;;13.27;9.50;;;;;;;19.97;70.33;96094.81;5137290;27;20043;-61
2022/08/20 02:07:49;;;;;;;14.45;9.15;;;;;;;19.93;71.02;96091.59;5137127;27;20051;-63
2022/08/20 02:10:18;;;;;;;12.52;9.32;;;;;;;19.88;71.09;96091.13;5137507;27;20488;-64
2022/08/20 02:12:45;;;;;;;16.33;8.85;;;;;;;19.83;70.85;96088.84;5137105;27;20135;-65
2022/08/20 02:15:14;;;;;;;15.93;9.45;;;;;;;19.80;71.07;96089.97;5137014;27;20061;-63
2022/08/20 02:17:42;;;;;;;12.95;9.77;;;;;;;19.82;70.95;96090.69;5136955;27;20411;-64
2022/08/20 02:20:12;;;;;;;11.25;9.32;;;;;;;19.86;70.63;96095.75;5136847;27;20058;-63
2022/08/20 02:22:44;;;;;;;16.38;8.95;;;;;;;19.88;70.80;96091.97;5136857;27;20139;-63
2022/08/20 02:25:12;;;;;;;10.23;9.20;;;;;;;19.88;70.49;96091.13;5136814;27;20130;-61
2022/08/20 02:27:42;;;;;;;10.63;8.77;;;;;;;19.83;69.96;96081.75;5136843;27;20053;-66
2022/08/20 02:30:15;;;;;;;11.00;8.90;;;;;;;19.76;70.26;96083.22;5136853;27;20120;-58
2022/08/20 02:32:42;;;;;;;15.02;8.35;;;;;;;19.73;70.46;96085.28;5136708;27;20484;-67
2022/08/20 02:35:12;;;;;;;11.88;8.93;;;;;;;19.69;71.56;96085.53;5136642;27;20129;-62
2022/08/20 02:37:42;;;;;;;11.10;8.27;;;;;;;19.67;71.84;96084.84;5136725;27;20050;-65
2022/08/20 02:40:13;;;;;;;13.63;8.55;;;;;;;19.67;71.19;96082.19;5136481;27;20302;-62
2022/08/20 02:42:40;;;;;;;14.85;9.32;;;;;;;19.70;71.16;96083.72;5136501;27;20051;-60
2022/08/20 02:45:09;;;;;;;11.32;9.13;;;;;;;19.68;71.06;96083.00;5136483;27;20047;-62
2022/08/20 02:47:38;;;;;;;10.65;9.35;;;;;;;19.69;70.90;96084.72;5136430;27;20492;-59
2022/08/20 02:50:08;;;;;;;14.57;8.85;;;;;;;19.70;70.85;96089.88;5136446;27;20047;-67
2022/08/20 02:52:35;;;;;;;10.57;8.73;;;;;;;19.69;70.68;96082.06;5136305;27;20058;-66
2022/08/20 02:55:02;;;;;;;10.95;9.02;;;;;;;19.68;70.36;96085.66;5136419;27;20091;-67
2022/08/20 02:57:29;;;;;;;10.20;9.18;;;;;;;19.66;70.42;96079.66;5135631;27;20043;-61
2022/08/20 02:59:56;;;;;;;12.18;9.38;;;;;;;19.62;71.76;96084.34;5135991;27;20511;-60
2022/08/20 03:02:23;;;;;;;11.45;9.23;;;;;;;19.59;71.55;96084.59;5136184;27;20172;-65
2022/08/20 03:04:52;;;;;;;17.80;9.30;;;;;;;19.60;71.14;96080.16;5136101;27;20120;-66
2022/08/20 03:07:19;;;;;;;13.65;9.43;;;;;;;19.60;71.50;96085.47;5136130;27;20051;-66
2022/08/20 03:09:46;;;;;;;11.35;9.23;;;;;;;19.59;71.52;96089.09;5135935;27;20085;-67
2022/08/20 03:12:13;;;;;;;10.52;9.52;;;;;;;19.52;70.90;96086.94;5136020;27;20212;-66
2022/08/20 03:14:40;;;;;;;11.93;9.90;;;;;;;19.48;71.00;96088.16;5136017;27;20043;-67
2022/08/20 03:17:07;;;;;;;11.77;10.23;;;;;;;19.44;71.53;96086.69;5135721;27;20496;-59
2022/08/20 03:19:34;;;;;;;14.18;10.32;;;;;;;19.32;73.00;96089.38;5135943;27;20096;-64
2022/08/20 03:22:03;;;;;;;10.70;9.32;;;;;;;19.28;72.51;96092.41;5135804;27;20100;-61
2022/08/20 03:24:30;;;;;;;12.57;9.30;;;;;;;19.22;72.10;96088.44;5135699;27;20087;-65
2022/08/20 03:26:57;;;;;;;11.55;9.32;;;;;;;19.18;72.54;96084.38;5135685;27;20074;-59
2022/08/20 03:29:25;;;;;;;16.13;9.65;;;;;;;19.19;73.39;96083.38;5135733;27;20079;-64
2022/08/20 03:31:52;;;;;;;16.80;11.05;;;;;;;19.12;74.24;96087.50;5135961;27;20051;-62
2022/08/20 03:34:19;;;;;;;14.80;10.30;;;;;;;19.11;73.88;96084.00;5135531;27;20138;-62
2022/08/20 03:36:46;;;;;;;18.25;10.50;;;;;;;19.12;73.44;96093.66;5135440;27;20047;-65
2022/08/20 03:39:15;;;;;;;10.65;9.55;;;;;;;19.17;73.01;96093.25;5135348;27;20059;-65
2022/08/20 03:41:42;;;;;;;13.93;10.63;;;;;;;19.13;73.16;96095.34;5135412;27;20049;-60
2022/08/20 03:44:10;;;;;;;12.43;10.48;;;;;;;19.16;72.79;96096.88;5135243;27;20098;-64
2022/08/20 03:46:38;;;;;;;15.60;10.35;;;;;;;19.16;72.66;96092.44;5135280;27;20050;-58
2022/08/20 03:49:06;;;;;;;16.08;10.30;;;;;;;19.22;72.80;96090.25;5135249;27;20043;-66
2022/08/20 03:51:33;;;;;;;10.98;9.88;;;;;;;19.23;72.45;96092.78;5135151;27;20039;-66
2022/08/20 03:54:01;;;;;;;11.50;9.63;;;;;;;19.25;72.35;96090.00;5135098;27;20417;-66
2022/08/20 03:56:30;;;;;;;10.45;9.45;;;;;;;19.31;72.38;96089.50;5135163;27;20134;-64
2022/08/20 03:58:58;;;;;;;13.25;10.25;;;;;;;19.39;72.21;96089.72;5135240;27;20044;-61
2022/08/20 04:01:25;;;;;;;14.18;9.63;;;;;;;19.44;71.96;96089.34;5135141;27;20126;-64
2022/08/20 04:03:52;;;;;;;10.55;9.43;;;;;;;19.53;72.04;96091.25;5135225;27;20099;-65
2022/08/20 04:06:19;;;;;;;14.43;9.40;;;;;;;19.75;71.19;96104.59;5134751;27;20170;-68
2022/08/20 04:08:46;;;;;;;12.18;8.48;;;;;;;20.00;70.45;96102.53;5134615;27;20047;-61
2022/08/20 04:11:13;;;;;;;13.35;8.98;;;;;;;20.23;69.91;96097.16;5134403;27;20441;-67
2022/08/20 04:13:42;;;;;;;18.45;10.07;;;;;;;20.49;69.25;96102.88;5134805;27;20043;-66
2022/08/20 04:16:09;;;;;;;10.02;9.07;;;;;;;20.83;68.08;96105.28;5134658;27;20500;-64
2022/08/20 04:18:37;;;;;;;10.00;9.00;;;;;;;21.15;66.96;96100.81;5134926;27;20082;-70
2022/08/20 04:21:05;;;;;;;9.80;8.50;;;;;;;21.46;65.29;96108.72;5134666;27;20076;-64
2022/08/20 04:23:32;;;;;;;8.68;7.72;;;;;;;21.74;64.51;96112.56;5134706;27;20039;-69
2022/08/20 04:26:00;;;;;;;9.80;8.32;;;;;;;21.95;63.62;96099.97;5134586;27;20497;-65
2022/08/20 04:28:29;;;;;;;10.48;8.20;;;;;;;22.32;63.29;96108.22;5134585;27;20119;-61
2022/08/20 04:31:00;;;;;;;9.10;8.30;;;;;;;22.63;62.57;96102.69;5134380;27;20047;-66
2022/08/20 04:33:30;;;;;;;8.98;8.07;;;;;;;22.98;61.46;96095.00;5134455;27;20391;-66
2022/08/20 04:35:59;;;;;;;12.00;7.60;;;;;;;23.35;60.74;96095.94;5134546;27;20043;-71
2022/08/20 04:38:27;;;;;;;10.82;7.50;;;;;;;23.74;59.53;96092.19;5134352;27;20045;-67
2022/08/20 04:40:56;;;;;;;9.32;8.00;;;;;;;24.11;58.62;96096.53;5134271;27;20058;-68
2022/08/20 04:43:26;;;;;;;8.90;7.07;;;;;;;24.51;57.13;96093.50;5134183;27;20043;-59
2022/08/20 04:45:56;;;;;;;13.65;7.72;;;;;;;24.79;56.53;96098.69;5134431;27;20146;-66
2022/08/20 04:48:27;;;;;;;8.88;6.78;;;;;;;25.06;55.98;96096.84;5134468;27;20051;-69
2022/08/20 04:50:56;;;;;;;11.95;7.90;;;;;;;25.49;55.28;96088.78;5134211;27;20134;-66
2022/08/20 04:53:26;;;;;;;7.43;6.78;;;;;;;25.98;54.11;96092.56;5134080;27;20070;-66
2022/08/20 04:55:54;;;;;;;9.90;6.60;;;;;;;26.39;52.76;96092.78;5134061;27;20079;-65
2022/08/20 04:58:25;;;;;;;11.25;6.90;;;;;;;26.77;52.18;96095.72;5133832;27;20143;-62
2022/08/20 05:00:57;;;;;;;9.55;7.05;;;;;;;27.19;50.66;96092.91;5133934;27;20051;-61
2022/08/20 05:03:26;;;;;;;15.02;6.90;;;;;;;27.54;50.23;96093.41;5134121;27;20382;-69
2022/08/20 05:05:53;;;;;;;7.80;6.28;;;;;;;27.90;49.70;96105.44;5134047;27;20454;-64
2022/08/20 05:08:22;;;;;;;11.00;6.55;;;;;;;28.28;48.99;96101.97;5134066;27;20085;-67
2022/08/20 05:10:50;;;;;;;12.70;6.47;;;;;;;28.62;48.29;96103.38;5134039;27;20049;-64
2022/08/20 05:13:18;;;;;;;11.70;6.72;;;;;;;28.88;47.79;96110.19;5133855;27;20046;-62
2022/08/20 05:15:47;;;;;;;10.45;6.70;;;;;;;29.09;46.76;96115.84;5134143;27;20082;-62
2022/08/20 05:18:18;;;;;;;16.65;6.88;;;;;;;29.33;45.15;96117.44;5133887;27;20116;-71
2022/08/20 05:20:48;;;;;;;10.85;7.05;;;;;;;29.53;44.20;96108.75;5134665;27;20047;-70
2022/08/20 05:23:17;;;;;;;10.50;6.47;;;;;;;29.69;43.95;96115.81;5138119;27;20047;-73
2022/08/20 05:25:50;;;;;;;9.23;6.38;;;;;;;29.87;44.10;96115.38;5138005;27;20047;-62
2022/08/20 05:28:22;;;;;;;14.05;6.78;;;;;;;30.17;43.83;96109.06;5138171;27;20489;-64
2022/08/20 05:30:51;;;;;;;12.23;6.57;;;;;;;30.42;43.20;96105.09;5137914;27;20047;-59
2022/08/20 05:33:20;;;;;;;6.85;6.07;;;;;;;30.82;44.56;96102.72;5137928;27;20126;-61
2022/08/20 05:35:52;;;;;;;9.73;7.05;;;;;;;31.20;42.01;96098.78;5138073;27;20039;-69
2022/08/20 05:38:23;;;;;;;12.98;6.50;;;;;;;31.55;41.26;96099.78;5137820;27;20047;-72
2022/08/20 05:40:51;;;;;;;16.52;6.28;;;;;;;31.84;39.75;96100.50;5137835;27;20047;-65
2022/08/20 05:43:18;;;;;;;14.48;6.13;;;;;;;32.11;39.28;96097.88;5137812;27;20049;-71
2022/08/20 05:45:50;;;;;;;9.10;6.45;;;;;;;32.36;39.80;96097.25;5137813;27;20051;-65
2022/08/20 05:48:19;;;;;;;9.70;6.15;;;;;;;32.67;40.38;96103.06;5137739;27;20047;-69
2022/08/20 05:50:50;;;;;;;7.27;6.40;;;;;;;32.91;39.89;96098.88;5137624;27;20043;-70
2022/08/20 05:53:19;;;;;;;11.60;6.85;;;;;;;33.20;39.13;96107.56;5137827;27;20047;-71
2022/08/20 05:55:46;;;;;;;11.07;6.60;;;;;;;33.48;38.54;96101.00;5137692;27;20047;-69
2022/08/20 05:58:21;;;;;;;12.18;6.55;;;;;;;33.65;37.56;96092.41;5137447;27;20647;-64
2022/08/20 06:00:48;;;;;;;7.85;6.28;;;;;;;33.85;38.11;96105.84;5137412;27;20050;-72
2022/08/20 06:06:03;;;;;;;8.80;6.30;;;;;;;34.20;36.65;96101.06;5137430;27;20050;-60
2022/08/20 06:08:31;;;;;;;9.18;6.10;;;;;;;34.44;36.25;96098.56;5137285;27;20039;-65
2022/08/20 06:10:58;;;;;;;16.10;6.47;;;;;;;34.68;35.34;96090.66;5137201;27;20047;-64
2022/08/20 06:13:26;;;;;;;8.60;6.47;;;;;;;34.84;34.30;96094.69;5137436;27;20043;-65
2022/08/20 06:15:53;;;;;;;8.52;6.40;;;;;;;34.85;33.51;96099.88;5137332;27;20047;-71
2022/08/20 06:18:21;;;;;;;9.95;6.22;;;;;;;34.76;33.63;96104.78;5137202;27;20043;-68
2022/08/20 06:20:49;;;;;;;8.27;5.75;;;;;;;34.99;33.53;96113.34;5137003;27;20545;-70
2022/08/20 06:23:18;;;;;;;11.70;6.60;;;;;;;35.25;33.56;96108.72;5137080;27;20404;-64
2022/08/20 06:25:49;;;;;;;8.45;5.70;;;;;;;35.50;33.28;96105.06;5136998;27;20600;-68
2022/08/20 06:28:17;;;;;;;15.13;6.65;;;;;;;35.68;32.83;96106.91;5136881;27;20043;-71
2022/08/20 06:30:44;;;;;;;9.98;6.63;;;;;;;35.81;32.17;96096.94;5136743;27;20044;-64
2022/08/20 06:33:12;;;;;;;15.40;6.53;;;;;;;35.84;32.43;96100.03;5135927;27;20126;-64
2022/08/20 06:35:40;;;;;;;14.75;7.30;;;;;;;35.98;31.98;96097.09;5136843;27;20051;-67
2022/08/20 06:38:10;;;;;;;12.70;7.32;;;;;;;36.10;32.04;96094.41;5136638;27;20050;-65
2022/08/20 06:40:39;;;;;;;9.68;6.07;;;;;;;36.17;31.29;96100.59;5136660;27;20163;-62
2022/08/20 06:43:08;;;;;;;11.63;6.73;;;;;;;36.39;31.19;96100.09;5136596;27;20043;-65
2022/08/20 06:45:37;;;;;;;13.32;6.35;;;;;;;36.57;30.80;96107.31;5136515;27;20279;-63
2022/08/20 06:48:08;;;;;;;8.48;6.40;;;;;;;36.81;30.57;96101.91;5136569;27;20047;-69
2022/08/20 06:50:38;;;;;;;11.23;6.50;;;;;;;37.07;29.88;96102.47;5136396;27;20125;-68
2022/08/20 06:53:05;;;;;;;10.18;6.55;;;;;;;37.16;29.83;96103.75;5136442;27;20047;-70
2022/08/20 06:55:33;;;;;;;8.27;5.90;;;;;;;37.27;30.37;96099.38;5136512;27;20070;-72
2022/08/20 06:58:06;;;;;;;8.52;6.63;;;;;;;37.17;29.66;96102.69;5136230;27;20500;-67
2022/08/20 07:00:35;;;;;;;12.68;5.63;;;;;;;37.14;29.34;96096.91;5136130;27;20047;-62
2022/08/20 07:03:03;;;;;;;11.98;7.25;;;;;;;37.24;29.23;96099.03;5136368;27;20069;-64
2022/08/20 07:05:33;;;;;;;8.43;5.70;;;;;;;37.31;29.09;96093.47;5136597;27;20075;-63
2022/08/20 07:08:01;;;;;;;;;;;;;;;37.36;28.92;96088.94;5136675;27;20074;-70
2022/08/20 07:10:29;;;;;;;13.68;6.90;;;;;;;37.46;27.78;96080.13;5136203;27;19919;-68
2022/08/20 07:12:59;;;;;;;12.02;6.28;;;;;;;37.15;29.15;96077.59;5135968;27;20130;-68
2022/08/20 07:15:28;;;;;;;10.75;5.78;;;;;;;37.26;29.12;96080.56;5135949;27;20054;-71
2022/08/20 07:17:57;;;;;;;8.82;5.18;;;;;;;37.29;28.50;96075.44;5135892;27;20075;-62
2022/08/20 07:20:25;;;;;;;14.13;5.32;;;;;;;37.32;28.18;96067.84;5135898;27;20101;-65
2022/08/20 07:22:52;;;;;;;10.77;5.70;;;;;;;37.41;29.00;96077.31;5135864;27;20108;-64
2022/08/20 07:25:22;;;;;;;12.30;5.70;;;;;;;37.47;28.43;96062.69;5135784;27;20124;-61
2022/08/20 07:27:50;;;;;;;8.02;6.03;;;;;;;37.44;28.05;96071.38;5135785;27;20043;-67
2022/08/20 07:33:06;;;;;;;13.10;6.07;;;;;;;37.76;28.03;96064.63;5135655;27;20520;-69
2022/08/20 07:35:34;;;;;;;11.65;5.80;;;;;;;37.98;27.65;96063.91;5135936;27;20039;-66
2022/08/20 07:38:02;;;;;;;13.90;5.35;;;;;;;38.28;26.86;96060.09;5135660;27;20134;-60
2022/08/20 07:40:31;;;;;;;8.13;4.90;;;;;;;37.89;24.85;96061.56;5135492;27;20051;-65
2022/08/20 07:43:01;;;;;;;16.08;5.20;;;;;;;37.66;26.04;96057.03;5135687;27;20042;-63
2022/08/20 07:45:30;;;;;;;7.63;5.32;;;;;;;37.52;24.76;96062.78;5135698;27;20047;-63
2022/08/20 07:48:09;;;;;;;11.57;5.60;;;;;;;37.43;26.53;96061.53;5135439;27;20051;-71
2022/08/20 07:50:36;;;;;;;15.32;5.88;;;;;;;37.49;26.11;96066.00;5135400;27;20051;-64
2022/08/20 07:53:03;;;;;;;10.25;4.85;;;;;;;37.40;26.24;96062.00;5135262;27;20047;-58
2022/08/20 07:55:31;;;;;;;11.85;5.35;;;;;;;37.28;26.49;96045.69;5135509;27;20043;-68
2022/08/20 07:58:06;;;;;;;13.70;5.70;;;;;;;37.42;26.39;96057.16;5135182;27;20389;-67
2022/08/20 08:00:33;;;;;;;11.93;5.32;;;;;;;37.39;26.85;96057.63;5135091;27;20051;-71
2022/08/20 08:03:01;;;;;;;11.65;4.90;;;;;;;37.43;26.28;96056.06;5135082;27;20047;-64
2022/08/20 08:05:30;;;;;;;14.20;6.13;;;;;;;37.57;26.58;96058.50;5134999;27;20050;-72
2022/08/20 08:07:58;;;;;;;9.95;6.13;;;;;;;37.43;26.90;96047.88;5133884;27;20047;-65
2022/08/20 08:10:26;;;;;;;13.25;6.22;;;;;;;37.55;27.36;96053.28;5135080;27;20069;-67
2022/08/20 08:12:57;;;;;;;15.15;5.50;;;;;;;37.57;26.73;96053.88;5134932;27;20050;-69
2022/08/20 08:15:27;;;;;;;11.70;5.35;;;;;;;37.65;26.11;96045.31;5134809;27;20047;-68
2022/08/20 08:17:56;;;;;;;10.98;5.35;;;;;;;37.52;25.91;96051.88;5134821;27;20078;-62
2022/08/20 08:20:23;;;;;;;10.18;5.63;;;;;;;37.72;26.38;96050.66;5134749;27;20047;-63
2022/08/20 08:22:52;;;;;;;13.30;5.93;;;;;;;37.68;26.52;96054.94;5134727;27;20068;-65
2022/08/20 08:25:20;;;;;;;12.90;5.90;;;;;;;37.45;26.35;96050.38;5134733;27;20047;-65
2022/08/20 08:27:48;;;;;;;7.03;5.47;;;;;;;37.44;26.68;96046.84;5134677;27;20099;-71
2022/08/20 08:30:16;;;;;;;12.13;5.70;;;;;;;37.35;26.67;96049.09;5134619;27;20499;-64
2022/08/20 08:35:25;;;;;;;11.93;6.20;;;;;;;37.46;26.43;96036.50;5134451;27;20047;-67
2022/08/20 08:37:54;;;;;;;12.65;5.85;;;;;;;37.58;25.52;96041.91;5134595;27;20496;-68
2022/08/20 08:40:22;;;;;;;8.97;5.57;;;;;;;37.16;26.03;96034.78;5134433;27;20043;-65
2022/08/20 08:42:56;;;;;;;11.18;5.72;;;;;;;36.58;26.89;96024.56;5134120;27;20083;-67
2022/08/20 08:45:27;;;;;;;9.82;5.70;;;;;;;36.37;28.17;96028.72;5134326;27;20051;-61
2022/08/20 08:47:58;;;;;;;9.38;5.70;;;;;;;36.48;28.08;96019.72;5134376;27;20051;-66
2022/08/20 08:50:28;;;;;;;10.90;5.72;;;;;;;36.68;27.69;96018.50;5134377;27;20046;-67
2022/08/20 08:52:59;;;;;;;12.57;5.93;;;;;;;36.75;28.53;96015.72;5134588;27;20080;-62
2022/08/20 08:55:29;;;;;;;16.10;5.50;;;;;;;36.92;27.50;96022.06;5133716;27;20179;-63
2022/08/20 08:57:59;;;;;;;8.45;4.90;;;;;;;36.75;27.57;96018.44;5134140;27;20059;-69
2022/08/20 09:00:28;;;;;;;10.35;5.10;;;;;;;36.66;27.47;96018.75;5134070;27;20493;-66
2022/08/20 09:02:59;;;;;;;10.88;5.63;;;;;;;36.76;26.90;96012.75;5134332;27;20466;-65
2022/08/20 09:05:32;;;;;;;14.85;5.45;;;;;;;36.77;26.25;96008.94;5134195;27;20043;-62
2022/08/20 09:08:05;;;;;;;11.90;5.28;;;;;;;36.85;26.20;96007.75;5134057;27;20126;-60
2022/08/20 09:10:33;;;;;;;8.45;5.45;;;;;;;36.51;26.00;96010.25;5134020;27;20550;-63
2022/08/20 09:13:02;;;;;;;13.55;5.05;;;;;;;36.39;26.67;96002.91;5134143;27;20051;-67
2022/08/20 09:15:30;;;;;;;10.95;5.38;;;;;;;36.53;26.30;96003.50;5133980;27;20108;-68
2022/08/20 09:17:57;;;;;;;10.13;5.20;;;;;;;36.50;27.03;95995.81;5134125;27;20047;-64
2022/08/20 09:20:25;;;;;;;8.60;5.78;;;;;;;36.74;27.34;95997.69;5134009;27;20047;-65
2022/08/20 09:22:53;;;;;;;15.13;6.10;;;;;;;36.79;27.15;95995.09;5134036;27;20047;-66
2022/08/20 09:25:22;;;;;;;11.20;5.50;;;;;;;36.76;27.63;95998.28;5133834;27;20044;-62
2022/08/20 09:27:49;;;;;;;9.70;6.03;;;;;;;36.82;27.42;95997.34;5133849;27;20054;-69
2022/08/20 09:30:17;;;;;;;9.32;5.72;;;;;;;36.84;26.78;96000.63;5134238;27;20047;-71
2022/08/20 09:32:45;;;;;;;11.70;6.00;;;;;;;36.77;27.11;96003.50;5133848;27;20039;-66
2022/08/20 09:35:12;;;;;;;10.27;5.85;;;;;;;36.76;26.78;95990.97;5133783;27;20126;-68
2022/08/20 09:37:40;;;;;;;11.98;5.97;;;;;;;36.75;26.79;95991.19;5133696;27;20492;-68
2022/08/20 09:40:09;;;;;;;7.85;5.80;;;;;;;36.74;26.58;95984.91;5133492;27;20051;-62
2022/08/20 09:42:39;;;;;;;9.55;5.13;;;;;;;36.74;26.40;95986.81;5133759;27;20058;-68
2022/08/20 09:45:07;;;;;;;10.35;6.07;;;;;;;36.51;26.62;95992.00;5133754;27;20050;-65
2022/08/20 09:47:35;;;;;;;17.30;6.60;;;;;;;36.66;26.41;95988.00;5133693;27;20401;-65
2022/08/20 09:50:02;;;;;;;10.50;5.80;;;;;;;36.72;26.51;95989.75;5133812;27;20044;-63
2022/08/20 09:52:32;;;;;;;15.77;5.90;;;;;;;36.60;27.86;95978.84;5134092;27;20051;-64
2022/08/20 09:55:02;;;;;;;8.27;5.70;;;;;;;36.66;25.95;95983.34;5133783;27;20400;-66
2022/08/20 09:57:32;;;;;;;12.40;5.13;;;;;;;36.85;26.12;95979.69;5133533;27;20046;-64
2022/08/20 10:00:01;;;;;;;;;;;;;;;36.37;25.60;95977.00;5134263;27;20082;-61
2022/08/20 10:02:29;;;;;;;9.13;5.90;;;;;;;36.06;26.63;95968.09;5133573;27;19919;-62
2022/08/20 10:04:57;;;;;;;15.60;6.07;;;;;;;36.16;26.51;95974.63;5133624;27;20078;-68
2022/08/20 10:07:24;;;;;;;8.95;5.03;;;;;;;36.42;26.39;95969.78;5133813;27;20083;-67
2022/08/20 10:09:52;;;;;;;10.13;5.25;;;;;;;36.62;25.47;95962.28;5137205;27;20450;-69
2022/08/20 10:12:20;;;;;;;7.93;5.03;;;;;;;36.63;25.56;95969.41;5137204;27;20092;-70
2022/08/20 10:14:47;;;;;;;11.88;6.40;;;;;;;36.63;25.13;95964.78;5137277;27;20532;-63
2022/08/20 10:17:16;;;;;;;11.52;5.50;;;;;;;36.69;26.15;95956.72;5137165;27;20483;-69
2022/08/20 10:19:43;;;;;;;9.27;5.38;;;;;;;36.84;25.80;95953.53;5137085;27;20079;-64
2022/08/20 10:22:11;;;;;;;8.93;6.10;;;;;;;36.88;25.50;95954.69;5136862;27;20164;-61
2022/08/20 10:24:38;;;;;;;10.35;5.95;;;;;;;37.02;24.55;95950.59;5137015;27;20413;-69
2022/08/20 10:27:08;;;;;;;8.05;6.07;;;;;;;36.47;25.90;95960.91;5137196;27;20043;-63
2022/08/20 10:29:40;;;;;;;9.65;5.88;;;;;;;35.91;27.13;95943.00;5136874;27;20405;-65
2022/08/20 10:32:16;;;;;;;10.82;6.47;;;;;;;35.60;27.77;95944.13;5136729;27;20068;-68
2022/08/20 10:34:49;;;;;;;10.90;6.68;;;;;;;35.64;28.39;95942.59;5136886;27;20039;-65
2022/08/20 10:37:25;;;;;;;7.25;6.32;;;;;;;35.71;27.92;95948.78;5137292;27;20059;-68
2022/08/20 10:39:54;;;;;;;7.57;6.53;;;;;;;35.90;27.52;95945.97;5136888;27;20085;-68
2022/08/20 10:42:22;;;;;;;9.23;6.50;;;;;;;35.98;26.64;95942.06;5136679;27;20050;-63
2022/08/20 10:44:49;;;;;;;10.57;6.28;;;;;;;36.10;27.01;95936.63;5136603;27;20284;-67
2022/08/20 10:47:26;;;;;;;7.15;6.45;;;;;;;35.81;26.92;95939.25;5136446;27;20049;-67
2022/08/20 10:49:55;;;;;;;8.15;6.95;;;;;;;35.75;27.82;95939.09;5136480;27;20127;-64
2022/08/20 10:52:23;;;;;;;8.73;6.60;;;;;;;35.70;28.47;95930.84;5136493;27;20077;-65
2022/08/20 10:54:51;;;;;;;6.75;6.13;;;;;;;35.87;27.64;95927.38;5136693;27;20079;-70
2022/08/20 10:57:22;;;;;;;16.17;7.10;;;;;;;35.82;28.03;95922.69;5136213;27;20446;-68
2022/08/20 10:59:51;;;;;;;12.70;7.28;;;;;;;35.91;27.89;95934.03;5136580;27;20047;-61
2022/08/20 11:02:21;;;;;;;12.82;6.53;;;;;;;35.89;27.59;95928.84;5134937;27;20043;-68
2022/08/20 11:04:49;;;;;;;11.50;6.60;;;;;;;35.91;26.51;95920.44;5136254;27;20121;-65
2022/08/20 11:07:20;;;;;;;11.68;6.88;;;;;;;35.96;27.59;95919.75;5136184;27;20408;-68
2022/08/20 11:09:49;;;;;;;11.50;7.00;;;;;;;35.93;27.50;95921.03;5136077;27;20142;-64
2022/08/20 11:12:21;;;;;;;12.27;7.45;;;;;;;35.79;27.90;95906.84;5136242;27;20050;-62
2022/08/20 11:14:49;;;;;;;10.07;6.72;;;;;;;35.91;27.36;95906.84;5136141;27;20051;-67
2022/08/20 11:17:22;;;;;;;10.40;7.30;;;;;;;36.07;27.63;95907.19;5136218;27;20051;-62
2022/08/20 11:19:49;;;;;;;11.10;6.70;;;;;;;36.21;27.17;95903.19;5135450;27;20053;-60
2022/08/20 11:22:17;;;;;;;12.60;7.55;;;;;;;36.49;26.39;95901.63;5135761;27;20072;-66
2022/08/20 11:24:44;;;;;;;8.20;7.18;;;;;;;36.59;25.84;95897.47;5135848;27;20074;-66
2022/08/20 11:27:18;;;;;;;11.43;6.70;;;;;;;36.62;25.01;95899.66;5135906;27;20499;-67
2022/08/20 11:29:47;;;;;;;8.73;5.97;;;;;;;36.40;26.05;95900.31;5135844;27;20082;-68
2022/08/20 11:32:14;;;;;;;9.85;6.50;;;;;;;36.57;26.35;95897.69;5135760;27;20047;-64
2022/08/20 11:34:43;;;;;;;9.23;6.13;;;;;;;36.65;26.04;95899.19;5135729;27;20103;-64
2022/08/20 11:37:12;;;;;;;8.20;6.55;;;;;;;36.33;26.30;95902.34;5135661;27;20043;-68
2022/08/20 11:39:40;;;;;;;11.70;6.50;;;;;;;35.80;26.49;95894.88;5135841;27;20055;-66
2022/08/20 11:42:07;;;;;;;9.68;6.85;;;;;;;35.25;27.05;95881.31;5135408;27;20142;-66
2022/08/20 11:44:34;;;;;;;10.95;6.55;;;;;;;35.25;26.62;95878.59;5135543;27;20130;-67